createdAt,value
2018-06-11T00:00:33.983Z,8.60
2018-06-11T00:03:02.617Z,7.57
2018-06-11T00:05:31.426Z,8.53
2018-06-11T00:08:00.035Z,10.47
2018-06-11T00:10:28.701Z,9.43
2018-06-11T00:12:57.202Z,9.97
2018-06-11T00:15:25.779Z,10.03
2018-06-11T00:17:54.565Z,9.07
2018-06-11T00:20:23.192Z,4.60
2018-06-11T00:22:52.717Z,8.57
2018-06-11T00:25:21.167Z,8.37
2018-06-11T00:27:49.926Z,5.77
2018-06-11T00:30:18.435Z,5.67
2018-06-11T00:32:46.908Z,7.10
2018-06-11T00:35:15.681Z,6.47
2018-06-11T00:37:44.306Z,10.37
2018-06-11T00:40:13.299Z,10.40
2018-06-11T00:42:41.909Z,10.70
2018-06-11T00:45:10.365Z,6.20
2018-06-11T00:47:38.872Z,6.40
2018-06-11T00:50:07.526Z,4.10
2018-06-11T00:52:36.076Z,4.67
2018-06-11T00:55:04.649Z,9.53
2018-06-11T00:57:33.457Z,9.30
2018-06-11T01:00:02.026Z,11.07
2018-06-11T01:02:30.496Z,7.00
2018-06-11T01:04:59.689Z,7.57
2018-06-11T01:07:28.170Z,4.27
2018-06-11T01:09:56.664Z,4.37
2018-06-11T01:12:25.251Z,4.40
2018-06-11T01:14:53.749Z,10.47
2018-06-11T01:17:22.408Z,6.73
2018-06-11T01:19:51.013Z,8.13
2018-06-11T01:22:19.556Z,6.17
2018-06-11T01:24:48.046Z,5.63
2018-06-11T01:27:16.732Z,5.30
2018-06-11T01:29:45.206Z,6.13
2018-06-11T01:32:13.781Z,7.40
2018-06-11T01:34:42.387Z,5.57
2018-06-11T01:37:10.919Z,4.97
2018-06-11T01:39:39.439Z,6.17
2018-06-11T01:42:08.668Z,6.33
2018-06-11T01:44:37.234Z,4.83
2018-06-11T01:47:05.787Z,4.70
2018-06-11T01:49:34.500Z,6.93
2018-06-11T01:52:02.970Z,5.33
2018-06-11T01:54:31.454Z,4.40
2018-06-11T01:57:00.610Z,6.60
2018-06-11T01:59:29.051Z,10.83
2018-06-11T02:01:57.529Z,6.77
2018-06-11T02:04:26.124Z,11.97
2018-06-11T02:06:54.695Z,8.93
2018-06-11T02:09:23.182Z,7.13
2018-06-11T02:11:51.927Z,13.90
2018-06-11T02:14:20.484Z,7.50
2018-06-11T02:16:49.548Z,16.37
2018-06-11T02:19:17.993Z,16.70
2018-06-11T02:21:46.513Z,8.50
2018-06-11T02:24:14.978Z,10.37
2018-06-11T02:26:43.479Z,10.13
2018-06-11T02:29:12.002Z,7.80
2018-06-11T02:31:40.445Z,9.77
2018-06-11T02:34:08.866Z,6.67
2018-06-11T02:36:37.349Z,8.00
2018-06-11T02:39:07.813Z,7.83
2018-06-11T02:41:36.414Z,6.73
2018-06-11T02:44:04.950Z,7.20
2018-06-11T02:46:33.394Z,7.00
2018-06-11T02:49:02.638Z,5.93
2018-06-11T02:51:31.095Z,9.70
2018-06-11T02:53:59.704Z,6.60
2018-06-11T02:56:28.195Z,7.17
2018-06-11T02:58:56.735Z,16.27
2018-06-11T03:01:25.226Z,19.17
2018-06-11T03:03:53.709Z,18.47
2018-06-11T03:06:22.201Z,11.90
2018-06-11T03:08:50.733Z,16.23
2018-06-11T03:11:19.208Z,14.03
2018-06-11T03:13:47.709Z,15.60
2018-06-11T03:16:16.858Z,11.20
2018-06-11T03:18:45.381Z,7.97
2018-06-11T03:21:13.833Z,9.27
2018-06-11T03:23:42.316Z,8.50
2018-06-11T03:26:10.726Z,9.90
2018-06-11T03:28:39.303Z,14.00
2018-06-11T03:31:07.780Z,8.53
2018-06-11T03:33:36.415Z,6.47
2018-06-11T03:36:04.893Z,6.97
2018-06-11T03:38:33.519Z,7.27
2018-06-11T03:41:05.479Z,5.73
2018-06-11T03:43:33.930Z,14.30
2018-06-11T03:46:02.464Z,11.37
2018-06-11T03:48:30.916Z,19.57
2018-06-11T03:50:59.381Z,17.93
2018-06-11T03:53:27.865Z,19.13
2018-06-11T03:55:56.319Z,18.17
2018-06-11T03:58:25.008Z,18.13
2018-06-11T04:00:53.493Z,16.93
2018-06-11T04:03:22.037Z,16.30
2018-06-11T04:05:50.614Z,12.80
2018-06-11T04:08:19.338Z,10.80
2018-06-11T04:10:47.841Z,16.27
2018-06-11T04:13:16.278Z,13.20
2018-06-11T04:15:46.805Z,6.77
2018-06-11T04:18:15.347Z,5.83
2018-06-11T04:20:43.816Z,7.83
2018-06-11T04:23:12.334Z,6.70
2018-06-11T04:25:40.815Z,15.30
2018-06-11T04:28:09.325Z,16.60
2018-06-11T04:30:38.099Z,12.47
2018-06-11T04:33:06.598Z,15.10
2018-06-11T04:35:35.136Z,14.33
2018-06-11T04:38:03.813Z,15.73
2018-06-11T04:40:32.370Z,15.23
2018-06-11T04:43:00.529Z,15.13
2018-06-11T04:45:28.969Z,14.50
2018-06-11T04:47:57.441Z,15.50
2018-06-11T04:50:25.967Z,14.80
2018-06-11T04:52:54.497Z,15.57
2018-06-11T04:55:22.962Z,9.80
2018-06-11T04:57:51.423Z,13.43
2018-06-11T05:00:19.951Z,12.10
2018-06-11T05:02:48.658Z,16.23
2018-06-11T05:05:17.505Z,9.70
2018-06-11T05:07:46.046Z,9.40
2018-06-11T05:10:14.534Z,10.10
2018-06-11T05:12:42.706Z,7.73
2018-06-11T05:15:10.858Z,8.60
2018-06-11T05:17:39.320Z,8.90
2018-06-11T05:20:07.879Z,6.77
2018-06-11T05:22:36.386Z,16.60
2018-06-11T05:25:04.992Z,16.30
2018-06-11T05:27:33.590Z,14.70
2018-06-11T05:30:02.021Z,13.23
2018-06-11T05:32:30.788Z,9.40
2018-06-11T05:34:59.246Z,7.20
2018-06-11T05:37:27.711Z,14.57
2018-06-11T05:39:56.194Z,12.93
2018-06-11T05:42:24.755Z,11.00
2018-06-11T05:44:53.239Z,6.83
2018-06-11T05:47:22.000Z,9.13
2018-06-11T05:49:50.520Z,6.10
2018-06-11T05:52:19.047Z,10.73
2018-06-11T05:54:47.663Z,14.93
2018-06-11T05:57:16.185Z,9.07
2018-06-11T05:59:44.739Z,13.47
2018-06-11T06:02:13.343Z,7.20
2018-06-11T06:04:42.209Z,11.80
2018-06-11T06:07:10.743Z,11.63
2018-06-11T06:09:39.232Z,9.13
2018-06-11T06:12:07.737Z,12.23
2018-06-11T06:14:36.260Z,10.13
2018-06-11T06:17:05.002Z,9.43
2018-06-11T06:19:33.528Z,9.97
2018-06-11T06:22:02.941Z,9.13
2018-06-11T06:24:31.472Z,12.20
2018-06-11T06:26:59.958Z,11.47
2018-06-11T06:29:28.421Z,10.23
2018-06-11T06:31:56.935Z,10.57
2018-06-11T06:34:25.561Z,10.40
2018-06-11T06:36:53.969Z,6.93
2018-06-11T06:39:22.452Z,8.17
2018-06-11T06:41:50.884Z,7.83
2018-06-11T06:44:19.327Z,12.40
2018-06-11T06:46:47.854Z,6.70
2018-06-11T06:49:17.221Z,5.73
2018-06-11T06:51:45.655Z,7.47
2018-06-11T06:54:14.314Z,8.37
2018-06-11T06:56:42.798Z,10.63
2018-06-11T06:59:11.249Z,8.10
2018-06-11T07:01:39.681Z,7.00
2018-06-11T07:04:08.168Z,9.63
2018-06-11T07:06:36.765Z,12.37
2018-06-11T07:09:07.613Z,7.53
2018-06-11T07:11:36.498Z,8.20
2018-06-11T07:14:04.990Z,9.07
2018-06-11T07:16:33.454Z,8.23
2018-06-11T07:19:01.905Z,11.33
2018-06-11T07:21:30.373Z,8.50
2018-06-11T07:23:58.866Z,9.30
2018-06-11T07:26:27.001Z,7.57
2018-06-11T07:28:55.528Z,9.40
2018-06-11T07:31:24.006Z,10.73
2018-06-11T07:33:52.534Z,11.63
2018-06-11T07:36:21.038Z,8.83
2018-06-11T07:38:49.508Z,7.40
2018-06-11T07:41:17.987Z,8.40
2018-06-11T07:43:46.573Z,6.77
2018-06-11T07:46:15.135Z,10.73
2018-06-11T07:48:43.614Z,11.93
2018-06-11T07:51:12.143Z,9.43
2018-06-11T07:53:40.688Z,7.00
2018-06-11T07:56:09.168Z,8.10
2018-06-11T07:58:37.647Z,10.60
2018-06-11T08:01:06.185Z,10.60
2018-06-11T08:03:34.724Z,11.63
2018-06-11T08:06:03.247Z,11.57
2018-06-11T08:08:31.704Z,9.48
2018-06-11T08:11:00.379Z,9.43
2018-06-11T08:13:28.998Z,10.80
2018-06-11T08:15:57.474Z,7.00
2018-06-11T08:18:26.016Z,6.57
2018-06-11T08:20:54.640Z,8.90
2018-06-11T08:23:23.119Z,5.60
2018-06-11T08:25:51.580Z,11.25
2018-06-11T08:28:20.066Z,5.90
2018-06-11T08:30:48.604Z,9.95
2018-06-11T08:33:17.054Z,6.00
2018-06-11T08:35:45.235Z,8.33
2018-06-11T08:38:13.465Z,9.43
2018-06-11T08:40:41.939Z,8.18
2018-06-11T08:43:10.386Z,10.20
2018-06-11T08:45:38.862Z,6.83
2018-06-11T08:48:07.340Z,11.45
2018-06-11T08:50:35.817Z,9.95
2018-06-11T08:53:04.410Z,7.45
2018-06-11T08:55:32.861Z,5.25
2018-06-11T08:58:02.316Z,10.03
2018-06-11T09:00:30.784Z,10.03
2018-06-11T09:02:59.244Z,7.58
2018-06-11T09:05:27.730Z,9.38
2018-06-11T09:08:00.576Z,6.17
2018-06-11T09:10:29.056Z,9.10
2018-06-11T09:12:57.598Z,7.20
2018-06-11T09:15:26.090Z,8.58
2018-06-11T09:17:54.683Z,10.13
2018-06-11T09:20:23.118Z,10.05
2018-06-11T09:22:51.582Z,10.45
2018-06-11T09:25:20.069Z,8.28
2018-06-11T09:27:48.533Z,9.80
2018-06-11T09:30:17.024Z,9.03
2018-06-11T09:32:46.355Z,8.85
2018-06-11T09:35:14.882Z,9.50
2018-06-11T09:37:43.314Z,10.35
2018-06-11T09:40:11.800Z,8.28
2018-06-11T09:42:40.329Z,5.15
2018-06-11T09:45:08.884Z,10.28
2018-06-11T09:47:37.352Z,7.03
2018-06-11T09:50:05.835Z,7.22
2018-06-11T09:52:34.281Z,5.47
2018-06-11T09:55:02.774Z,8.35
2018-06-11T09:57:31.258Z,8.45
2018-06-11T09:59:59.721Z,8.48
2018-06-11T10:02:28.225Z,8.63
2018-06-11T10:04:56.775Z,6.65
2018-06-11T10:07:25.248Z,8.13
2018-06-11T10:09:53.723Z,5.62
2018-06-11T10:12:22.326Z,8.35
2018-06-11T10:14:50.701Z,5.08
2018-06-11T10:17:19.236Z,7.70
2018-06-11T10:19:47.680Z,8.58
2018-06-11T10:22:16.111Z,6.67
2018-06-11T10:24:44.646Z,7.62
2018-06-11T10:27:13.074Z,11.10
2018-06-11T10:29:41.605Z,9.75
2018-06-11T10:32:10.096Z,10.80
2018-06-11T10:34:38.217Z,8.95
2018-06-11T10:37:06.740Z,8.10
2018-06-11T10:39:35.230Z,6.12
2018-06-11T10:42:03.730Z,11.05
2018-06-11T10:44:32.318Z,9.65
2018-06-11T10:47:00.845Z,7.80
2018-06-11T10:49:29.337Z,7.35
2018-06-11T10:51:57.843Z,7.40
2018-06-11T10:54:26.328Z,7.78
2018-06-11T10:56:54.796Z,6.62
2018-06-11T10:59:23.262Z,8.35
2018-06-11T11:01:51.798Z,6.37
2018-06-11T11:04:20.283Z,7.08
2018-06-11T11:06:48.828Z,6.30
2018-06-11T11:09:16.977Z,4.70
2018-06-11T11:11:46.819Z,5.95
2018-06-11T11:14:15.134Z,6.12
2018-06-11T11:16:43.600Z,6.65
2018-06-11T11:19:12.038Z,6.80
2018-06-11T11:21:40.475Z,3.92
2018-06-11T11:24:08.969Z,3.72
2018-06-11T11:26:37.446Z,6.45
2018-06-11T11:29:06.064Z,5.30
2018-06-11T11:31:34.531Z,6.92
2018-06-11T11:34:03.013Z,5.05
2018-06-11T11:36:32.042Z,4.00
2018-06-11T11:39:00.542Z,6.17
2018-06-11T11:41:29.669Z,7.12
2018-06-11T11:43:58.128Z,6.72
2018-06-11T11:46:26.650Z,6.85
2018-06-11T11:48:55.098Z,7.05
2018-06-11T11:51:23.555Z,7.15
2018-06-11T11:53:52.095Z,7.90
2018-06-11T11:56:20.650Z,7.55
2018-06-11T11:58:49.218Z,7.75
2018-06-11T12:01:17.829Z,7.45
2018-06-11T12:03:46.275Z,4.25
2018-06-11T12:06:14.722Z,6.55
2018-06-11T12:08:43.244Z,6.70
2018-06-11T12:11:11.740Z,8.13
2018-06-11T12:13:40.830Z,8.18
2018-06-11T12:16:10.090Z,8.35
2018-06-11T12:18:38.713Z,5.50
2018-06-11T12:21:07.233Z,8.20
2018-06-11T12:23:35.768Z,6.30
2018-06-11T12:26:04.465Z,8.83
2018-06-11T12:28:33.000Z,7.20
2018-06-11T12:31:01.557Z,7.75
2018-06-11T12:33:30.062Z,5.70
2018-06-11T12:35:58.562Z,10.18
2018-06-11T12:38:27.789Z,9.05
2018-06-11T12:40:56.398Z,9.00
2018-06-11T12:43:25.455Z,8.95
2018-06-11T12:45:54.106Z,6.72
2018-06-11T12:48:22.890Z,7.05
2018-06-11T12:50:51.431Z,9.15
2018-06-11T12:53:19.925Z,8.23
2018-06-11T12:55:48.423Z,8.10
2018-06-11T12:58:17.507Z,7.22
2018-06-11T13:00:47.209Z,5.67
2018-06-11T13:03:16.319Z,5.78
2018-06-11T13:05:44.793Z,3.52
2018-06-11T13:08:13.824Z,4.12
2018-06-11T13:10:42.417Z,5.20
2018-06-11T13:13:11.152Z,5.50
2018-06-11T13:15:39.732Z,5.75
2018-06-11T13:18:08.179Z,5.85
2018-06-11T13:20:36.629Z,5.75
2018-06-11T13:23:05.192Z,6.00
2018-06-11T13:25:33.848Z,6.42
2018-06-11T13:28:02.309Z,7.55
2018-06-11T13:30:30.823Z,7.37
2018-06-11T13:32:59.434Z,6.83
2018-06-11T13:35:27.970Z,7.33
2018-06-11T13:37:56.425Z,7.17
2018-06-11T13:40:24.931Z,7.22
2018-06-11T13:42:53.452Z,7.58
2018-06-11T13:45:22.479Z,7.87
2018-06-11T13:47:50.975Z,8.15
2018-06-11T13:50:19.668Z,8.40
2018-06-11T13:52:48.265Z,6.42
2018-06-11T13:55:17.195Z,8.38
2018-06-11T13:57:46.053Z,7.85
2018-06-11T14:00:14.682Z,7.30
2018-06-11T14:02:43.165Z,6.58
2018-06-11T14:05:13.154Z,7.22
2018-06-11T14:07:41.599Z,4.87
2018-06-11T14:10:10.233Z,6.90
2018-06-11T14:12:38.488Z,7.33
2018-06-11T14:15:07.194Z,7.45
2018-06-11T14:17:35.816Z,6.72
2018-06-11T14:20:07.505Z,7.65
2018-06-11T14:22:36.865Z,6.25
2018-06-11T14:25:07.031Z,4.90
2018-06-11T14:27:36.235Z,6.05
2018-06-11T14:30:04.823Z,6.92
2018-06-11T14:32:33.534Z,6.20
2018-06-11T14:35:02.220Z,7.03
2018-06-11T14:37:30.721Z,7.80
2018-06-11T14:39:59.187Z,5.22
2018-06-11T14:42:27.633Z,5.35
2018-06-11T14:44:56.099Z,6.62
2018-06-11T14:47:24.751Z,6.78
2018-06-11T14:49:53.458Z,10.00
2018-06-11T14:52:21.980Z,8.75
2018-06-11T14:54:50.497Z,9.65
2018-06-11T14:57:18.978Z,9.95
2018-06-11T14:59:47.494Z,7.47
2018-06-11T15:02:16.025Z,6.80
2018-06-11T15:04:44.803Z,9.23
2018-06-11T15:07:13.274Z,9.28
2018-06-11T15:09:41.686Z,7.72
2018-06-11T15:12:10.125Z,8.50
2018-06-11T15:14:39.301Z,9.58
2018-06-11T15:17:07.979Z,9.60
2018-06-11T15:19:36.592Z,10.45
2018-06-11T15:22:05.181Z,8.55
2018-06-11T15:24:33.730Z,8.65
2018-06-11T15:27:02.234Z,7.55
2018-06-11T15:29:30.801Z,8.00
2018-06-11T15:31:59.264Z,6.87
2018-06-11T15:34:27.750Z,8.20
2018-06-11T15:36:56.368Z,7.62
2018-06-11T15:39:25.607Z,8.65
2018-06-11T15:41:54.121Z,7.75
2018-06-11T15:44:22.999Z,6.20
2018-06-11T15:46:51.662Z,5.25
2018-06-11T15:49:20.194Z,4.10
2018-06-11T15:51:48.729Z,3.85
2018-06-11T15:54:17.501Z,3.98
2018-06-11T15:56:45.881Z,3.72
2018-06-11T15:59:15.196Z,4.05
2018-06-11T16:01:43.711Z,5.03
2018-06-11T16:04:12.956Z,5.10
2018-06-11T16:06:41.530Z,5.03
2018-06-11T16:09:10.085Z,5.75
2018-06-11T16:11:39.416Z,4.50
2018-06-11T16:14:14.321Z,5.85
2018-06-11T16:16:42.868Z,4.33
2018-06-11T16:19:11.527Z,4.50
2018-06-11T16:21:40.077Z,3.80
2018-06-11T16:24:09.048Z,3.90
2018-06-11T16:26:38.212Z,3.90
2018-06-11T16:29:06.855Z,4.57
2018-06-11T16:31:35.984Z,4.70
2018-06-11T16:34:07.819Z,3.60
2018-06-11T16:36:46.830Z,3.27
2018-06-11T16:39:15.335Z,3.13
2018-06-11T16:41:55.558Z,3.57
2018-06-11T16:44:25.008Z,3.60
2018-06-11T16:46:53.514Z,3.27
2018-06-11T16:49:22.074Z,3.77
2018-06-11T16:51:59.661Z,3.33
2018-06-11T16:54:28.179Z,3.73
2018-06-11T16:56:56.874Z,3.77
2018-06-11T16:59:25.554Z,3.57
2018-06-11T17:01:54.161Z,3.50
2018-06-11T17:04:27.128Z,3.27
2018-06-11T17:07:08.974Z,4.13
2018-06-11T17:09:37.483Z,3.33
2018-06-11T17:12:06.029Z,3.20
2018-06-11T17:14:34.519Z,3.10
2018-06-11T17:17:03.142Z,3.30
2018-06-11T17:19:32.292Z,3.97
2018-06-11T17:22:00.894Z,2.70
2018-06-11T17:24:29.431Z,3.10
2018-06-11T17:26:57.979Z,4.47
2018-06-11T17:29:26.519Z,3.20
2018-06-11T17:31:55.293Z,3.07
2018-06-11T17:34:23.808Z,3.47
2018-06-11T17:36:52.338Z,2.97
2018-06-11T17:39:20.851Z,2.10
2018-06-11T17:41:49.384Z,2.93
2018-06-11T17:44:17.866Z,2.43
2018-06-11T17:46:46.387Z,2.73
2018-06-11T17:49:14.871Z,1.97
2018-06-11T17:51:43.427Z,2.00
2018-06-11T17:54:11.938Z,2.30
2018-06-11T17:56:42.328Z,1.83
2018-06-11T17:59:11.405Z,2.87
2018-06-11T18:01:40.127Z,2.30
2018-06-11T18:04:12.728Z,2.27
2018-06-11T18:06:41.541Z,2.30
2018-06-11T18:09:10.860Z,2.20
2018-06-11T18:11:39.385Z,2.17
2018-06-11T18:14:07.875Z,3.83
2018-06-11T18:16:36.421Z,2.00
2018-06-11T18:19:05.508Z,2.73
2018-06-11T18:21:34.732Z,3.00
2018-06-11T18:24:03.324Z,3.00
2018-06-11T18:26:31.823Z,2.87
2018-06-11T18:29:00.296Z,2.00
2018-06-11T18:31:28.772Z,2.17
2018-06-11T18:33:57.359Z,2.97
2018-06-11T18:36:25.906Z,3.87
2018-06-11T18:38:54.047Z,3.70
2018-06-11T18:41:22.566Z,3.80
2018-06-11T18:43:51.072Z,2.90
2018-06-11T18:46:19.687Z,3.17
2018-06-11T18:48:48.928Z,4.20
2018-06-11T18:51:17.109Z,3.30
2018-06-11T18:53:45.622Z,2.30
2018-06-11T18:56:14.083Z,7.20
2018-06-11T18:58:42.525Z,4.20
2018-06-11T19:01:11.060Z,3.43
2018-06-11T19:03:39.602Z,3.20
2018-06-11T19:06:08.171Z,2.67
2018-06-11T19:08:36.701Z,3.20
2018-06-11T19:11:05.206Z,4.30
2018-06-11T19:13:33.683Z,2.33
2018-06-11T19:16:02.184Z,1.97
2018-06-11T19:18:30.779Z,2.50
2018-06-11T19:20:59.260Z,2.47
2018-06-11T19:23:27.824Z,1.97
2018-06-11T19:25:56.311Z,2.73
2018-06-11T19:28:25.444Z,2.23
2018-06-11T19:30:53.983Z,1.73
2018-06-11T19:33:22.537Z,2.33
2018-06-11T19:35:51.380Z,1.70
2018-06-11T19:38:19.896Z,1.50
2018-06-11T19:40:48.080Z,1.20
2018-06-11T19:43:17.407Z,1.90
2018-06-11T19:45:46.173Z,2.00
2018-06-11T19:48:14.841Z,1.20
2018-06-11T19:50:43.580Z,2.40
2018-06-11T19:53:12.106Z,2.97
2018-06-11T19:55:40.706Z,2.73
2018-06-11T19:58:09.500Z,3.53
2018-06-11T20:00:38.065Z,3.73
2018-06-11T20:03:06.994Z,3.63
2018-06-11T20:05:35.641Z,2.70
2018-06-11T20:08:04.142Z,2.67
2018-06-11T20:10:32.795Z,2.83
2018-06-11T20:13:01.646Z,3.27
2018-06-11T20:15:30.165Z,3.17
2018-06-11T20:17:59.224Z,2.80
2018-06-11T20:20:27.821Z,2.90
2018-06-11T20:22:56.679Z,3.20
2018-06-11T20:25:25.624Z,1.80
2018-06-11T20:27:53.910Z,1.77
2018-06-11T20:30:22.494Z,3.00
2018-06-11T20:32:51.006Z,2.63
2018-06-11T20:35:19.830Z,2.70
2018-06-11T20:37:48.455Z,2.10
2018-06-11T20:40:16.960Z,2.30
2018-06-11T20:42:45.861Z,1.20
2018-06-11T20:45:14.557Z,1.50
2018-06-11T20:47:43.273Z,1.20
2018-06-11T20:50:11.811Z,1.00
2018-06-11T20:52:40.329Z,1.50
2018-06-11T20:55:09.017Z,1.77
2018-06-11T20:57:37.478Z,1.43
2018-06-11T21:00:06.150Z,1.53
2018-06-11T21:02:34.748Z,2.00
2018-06-11T21:05:03.282Z,2.20
2018-06-11T21:07:31.804Z,1.87
2018-06-11T21:10:00.371Z,3.10
2018-06-11T21:12:28.895Z,1.97
2018-06-11T21:14:57.638Z,1.97
2018-06-11T21:17:26.134Z,1.30
2018-06-11T21:19:54.812Z,1.83
2018-06-11T21:22:25.977Z,2.00
2018-06-11T21:24:54.772Z,1.50
2018-06-11T21:27:23.308Z,1.37
2018-06-11T21:29:51.854Z,2.27
2018-06-11T21:32:21.875Z,2.53
2018-06-11T21:34:50.393Z,2.90
2018-06-11T21:37:18.847Z,4.43
2018-06-11T21:39:49.443Z,4.67
2018-06-11T21:42:18.499Z,3.50
2018-06-11T21:44:46.933Z,4.63
2018-06-11T21:47:15.432Z,2.97
2018-06-11T21:49:43.867Z,2.07
2018-06-11T21:52:12.335Z,4.77
2018-06-11T21:54:40.846Z,3.80
2018-06-11T21:57:09.411Z,3.20
2018-06-11T21:59:37.912Z,3.10
2018-06-11T22:02:06.451Z,2.60
2018-06-11T22:04:34.869Z,1.70
2018-06-11T22:07:03.411Z,4.03
2018-06-11T22:09:31.853Z,4.50
2018-06-11T22:12:00.368Z,3.40
2018-06-11T22:14:28.838Z,3.67
2018-06-11T22:16:57.388Z,3.47
2018-06-11T22:19:26.519Z,4.00
2018-06-11T22:21:55.363Z,3.10
2018-06-11T22:24:23.840Z,3.37
2018-06-11T22:26:53.942Z,2.73
2018-06-11T22:29:22.453Z,2.37
2018-06-11T22:31:50.907Z,3.83
2018-06-11T22:34:19.997Z,3.00
2018-06-11T22:36:48.484Z,3.40
2018-06-11T22:39:17.028Z,3.57
2018-06-11T22:41:45.564Z,2.93
2018-06-11T22:44:14.593Z,2.57
2018-06-11T22:46:48.158Z,3.57
2018-06-11T22:49:16.293Z,4.30
2018-06-11T22:51:44.814Z,3.50
2018-06-11T22:54:13.307Z,3.87
2018-06-11T22:56:41.735Z,3.17
2018-06-11T22:59:10.173Z,2.57
2018-06-11T23:01:38.621Z,4.20
2018-06-11T23:04:07.168Z,6.37
2018-06-11T23:06:35.924Z,4.30
2018-06-11T23:09:06.726Z,3.33
2018-06-11T23:11:35.424Z,4.03
2018-06-11T23:14:04.612Z,6.00
2018-06-11T23:16:33.149Z,3.70
2018-06-11T23:19:01.656Z,4.70
2018-06-11T23:21:30.093Z,4.80
2018-06-11T23:23:58.853Z,3.20
2018-06-11T23:26:27.299Z,4.60
2018-06-11T23:28:55.708Z,3.60
2018-06-11T23:31:24.169Z,7.10
2018-06-11T23:33:52.675Z,3.63
2018-06-11T23:36:21.141Z,4.43
2018-06-11T23:38:49.681Z,8.10
2018-06-11T23:41:18.216Z,5.10
2018-06-11T23:43:46.702Z,8.60
2018-06-11T23:46:15.265Z,9.30
2018-06-11T23:48:43.721Z,8.53
2018-06-11T23:51:12.263Z,4.83
2018-06-11T23:54:28.845Z,3.80
